PWSweather.com
Personal Weather Stations
Station Observations
SUBOTICARS
SuboticaYU

SuboticaYU

Lat: 46.1296717, Lon: 19.641551

Elevation: 361

Station Type: Nexus

http://sumeteo.info

Latest ConditionsUpdated 2:55:01 AM GMT+01:01 Sunday, Feb 24, 2019
Currently Today's Max Today's Min Today's Average
Temperature 20.1°F-6.6°C 22.7°F-5.2°C 20.1°F-6.6°C 21.3°F-5.9°C
Dew Point 5.7°F-14.6°C 6.6°F-14.1°C 5.2°F-14.9°C 6.0°F-14.4°C
Winds 3.5 mph NNW5.6 kmh NNW 3.5 mph -5.6 kmh - - 2.7 mph 4.3 kmh
Wind Gusts 3.5 mph5.6 kmh 4.6 mph7.4 kmh - -
Humidity 53% 53% 49% 51%
Pressure 30.34 in1027.4 mb 30.36 in1028.1 mb 30.34 in1027.4 mb -
Hour Temp Dew Point Humidity Winds Wind Gusts Pressure Precip Precip Rate Daily Precip Total
02:55 AM 20.1°F-6.6°C 5.7°F-14.6°C 53% 3.5 mph NNW5.6 kmh NNW 3.5 mph5.6 kmh 30.34 in1027.4 mb - 0.00 in0.0 mm 0.00 in0.0 mm
02:50 AM 20.2°F-6.6°C 5.7°F-14.6°C 53% 2.3 mph NNW3.7 kmh NNW 2.3 mph3.7 kmh 30.34 in1027.4 mb - 0.00 in0.0 mm 0.00 in0.0 mm
02:45 AM 20.3°F-6.5°C 5.5°F-14.7°C 52% 2.3 mph NNW3.7 kmh NNW 3.5 mph5.6 kmh 30.34 in1027.4 mb - 0.00 in0.0 mm 0.00 in0.0 mm
02:40 AM 20.5°F-6.4°C 5.6°F-14.7°C 52% 2.3 mph NNE3.7 kmh NNE 2.3 mph3.7 kmh 30.34 in1027.4 mb - 0.00 in0.0 mm 0.00 in0.0 mm
02:35 AM 20.5°F-6.4°C 5.6°F-14.7°C 52% 3.5 mph NE5.6 kmh NE 3.5 mph5.6 kmh 30.34 in1027.4 mb - 0.00 in0.0 mm 0.00 in0.0 mm
02:30 AM 20.6°F-6.3°C 5.7°F-14.6°C 52% 3.5 mph NNE5.6 kmh NNE 3.5 mph5.6 kmh 30.34 in1027.4 mb - 0.00 in0.0 mm 0.00 in0.0 mm
02:25 AM 20.7°F-6.3°C 6.2°F-14.3°C 53% 3.5 mph NNE5.6 kmh NNE 3.5 mph5.6 kmh 30.34 in1027.4 mb - 0.00 in0.0 mm 0.00 in0.0 mm
02:20 AM 20.8°F-6.2°C 6.0°F-14.4°C 52% 2.3 mph NNE3.7 kmh NNE 3.5 mph5.6 kmh 30.34 in1027.4 mb - 0.00 in0.0 mm 0.00 in0.0 mm
02:15 AM 20.8°F-6.2°C 6.4°F-14.2°C 53% 2.3 mph NE3.7 kmh NE 3.5 mph5.6 kmh 30.34 in1027.4 mb - 0.00 in0.0 mm 0.00 in0.0 mm
02:10 AM 21.0°F-6.1°C 6.1°F-14.4°C 52% 3.5 mph NNE5.6 kmh NNE 3.5 mph5.6 kmh 30.34 in1027.4 mb - 0.00 in0.0 mm 0.00 in0.0 mm
02:00 AM 21.0°F-6.1°C 6.1°F-14.4°C 52% 2.3 mph NNE3.7 kmh NNE 3.5 mph5.6 kmh 30.34 in1027.4 mb - 0.00 in0.0 mm 0.00 in0.0 mm
01:55 AM 21.2°F-6.0°C 6.3°F-14.3°C 52% 2.3 mph N3.7 kmh N 2.3 mph3.7 kmh 30.36 in1028.1 mb - 0.00 in0.0 mm 0.00 in0.0 mm
01:50 AM 21.2°F-6.0°C 6.3°F-14.3°C 52% 3.5 mph NE5.6 kmh NE 3.5 mph5.6 kmh 30.36 in1028.1 mb - 0.00 in0.0 mm 0.00 in0.0 mm
01:45 AM 21.2°F-6.0°C 6.3°F-14.3°C 52% 3.5 mph NNE5.6 kmh NNE 3.5 mph5.6 kmh 30.36 in1028.1 mb - 0.00 in0.0 mm 0.00 in0.0 mm
01:40 AM 21.4°F-5.9°C 6.5°F-14.2°C 52% 2.3 mph N3.7 kmh N 3.5 mph5.6 kmh 30.36 in1028.1 mb - 0.00 in0.0 mm 0.00 in0.0 mm
01:35 AM 21.4°F-5.9°C 6.5°F-14.2°C 52% 2.3 mph NNW3.7 kmh NNW 3.5 mph5.6 kmh 30.36 in1028.1 mb - 0.00 in0.0 mm 0.00 in0.0 mm
01:30 AM 21.4°F-5.9°C 6.5°F-14.2°C 52% 3.5 mph NNE5.6 kmh NNE 3.5 mph5.6 kmh 30.36 in1028.1 mb - 0.00 in0.0 mm 0.00 in0.0 mm
01:25 AM 21.4°F-5.9°C 6.5°F-14.2°C 52% 3.5 mph NNE5.6 kmh NNE 3.5 mph5.6 kmh 30.36 in1028.1 mb - 0.00 in0.0 mm 0.00 in0.0 mm
01:20 AM 21.4°F-5.9°C 6.5°F-14.2°C 52% 3.5 mph NE5.6 kmh NE 3.5 mph5.6 kmh 30.36 in1028.1 mb - 0.00 in0.0 mm 0.00 in0.0 mm
01:15 AM 21.6°F-5.8°C 6.6°F-14.1°C 52% 3.5 mph NNE5.6 kmh NNE 3.5 mph5.6 kmh 30.36 in1028.1 mb - 0.00 in0.0 mm 0.00 in0.0 mm
01:10 AM 21.4°F-5.9°C 6.0°F-14.4°C 51% 3.5 mph NNE5.6 kmh NNE 4.6 mph7.4 kmh 30.35 in1027.8 mb - 0.00 in0.0 mm 0.00 in0.0 mm
01:00 AM 21.4°F-5.9°C 5.6°F-14.7°C 50% 2.3 mph NNE3.7 kmh NNE 2.3 mph3.7 kmh 30.35 in1027.8 mb - 0.00 in0.0 mm 0.00 in0.0 mm
12:55 AM 21.4°F-5.9°C 5.6°F-14.7°C 50% 2.3 mph NNE3.7 kmh NNE 3.5 mph5.6 kmh 30.36 in1028.1 mb - 0.00 in0.0 mm 0.00 in0.0 mm
12:50 AM 21.4°F-5.9°C 5.2°F-14.9°C 49% 1.2 mph NNW1.9 kmh NNW 2.3 mph3.7 kmh 30.36 in1028.1 mb - 0.00 in0.0 mm 0.00 in0.0 mm
12:45 AM 21.6°F-5.8°C 5.8°F-14.6°C 50% 2.3 mph NNW3.7 kmh NNW 2.3 mph3.7 kmh 30.36 in1028.1 mb - 0.00 in0.0 mm 0.00 in0.0 mm
12:40 AM 21.7°F-5.7°C 5.9°F-14.5°C 50% 2.3 mph NNW3.7 kmh NNW 3.5 mph5.6 kmh 30.36 in1028.1 mb - 0.00 in0.0 mm 0.00 in0.0 mm
12:35 AM 21.7°F-5.7°C 5.9°F-14.5°C 50% 3.5 mph NNW5.6 kmh NNW 3.5 mph5.6 kmh 30.36 in1028.1 mb - 0.00 in0.0 mm 0.00 in0.0 mm
12:30 AM 21.9°F-5.6°C 6.0°F-14.4°C 50% 2.3 mph NNW3.7 kmh NNW 2.3 mph3.7 kmh 30.36 in1028.1 mb - 0.00 in0.0 mm 0.00 in0.0 mm
12:25 AM 22.0°F-5.6°C 5.7°F-14.6°C 49% 2.3 mph NNW3.7 kmh NNW 3.5 mph5.6 kmh 30.35 in1027.8 mb - 0.00 in0.0 mm 0.00 in0.0 mm
12:20 AM 22.1°F-5.5°C 5.8°F-14.6°C 49% 1.2 mph N1.9 kmh N 2.3 mph3.7 kmh 30.35 in1027.8 mb - 0.00 in0.0 mm 0.00 in0.0 mm
12:15 AM 22.3°F-5.4°C 6.0°F-14.4°C 49% 2.3 mph NNW3.7 kmh NNW 3.5 mph5.6 kmh 30.35 in1027.8 mb - 0.00 in0.0 mm 0.00 in0.0 mm
12:10 AM 22.5°F-5.3°C 6.2°F-14.3°C 49% 2.3 mph N3.7 kmh N 3.5 mph5.6 kmh 30.35 in1027.8 mb - 0.00 in0.0 mm 0.00 in0.0 mm
12:00 AM 22.7°F-5.2°C 6.4°F-14.2°C 49% 2.3 mph NNE3.7 kmh NNE 3.5 mph5.6 kmh 30.35 in1027.8 mb - 0.00 in0.0 mm 0.00 in0.0 mm